Time;durP1;ratioP1;P1;durP2;ratioP2;P2;SDS_P1;SDS_P2;PMS_P1;PMS_P2;Temp;Humidity;BMP_temperature;BMP_pressure;BME280_temperature;BME280_humidity;BME280_pressure;Samples;Min_cycle;Max_cycle;Signal;HPM_P1;HPM_P2
2022/05/29 00:00:13;;;;;;;90.05;52.05;;;18.60;58.70;;;;;;4911148;28;97939;-40
2022/05/29 00:02:40;;;;;;;88.13;51.53;;;18.60;58.30;;;;;;4907061;28;98733;-40
2022/05/29 00:05:06;;;;;;;91.43;52.03;;;18.60;58.50;;;;;;4911091;28;95613;-43
2022/05/29 00:07:32;;;;;;;86.47;51.63;;;18.60;58.20;;;;;;4916118;28;96390;-42
2022/05/29 00:09:58;;;;;;;88.05;51.67;;;18.50;58.40;;;;;;4912332;28;101069;-40
2022/05/29 00:12:25;;;;;;;87.22;51.85;;;18.50;58.60;;;;;;4909730;28;95761;-40
2022/05/29 00:14:50;;;;;;;88.10;51.55;;;18.50;58.80;;;;;;4920543;28;95603;-40
2022/05/29 00:17:18;;;;;;;87.07;51.53;;;18.50;58.50;;;;;;4914126;28;95911;-40
2022/05/29 00:19:44;;;;;;;88.97;51.60;;;18.50;58.40;;;;;;4914890;28;95501;-41
2022/05/29 00:22:14;;;;;;;87.50;51.63;;;18.50;59.20;;;;;;4920645;28;95287;-40
2022/05/29 00:24:41;;;;;;;86.20;51.55;;;18.40;57.90;;;;;;4909791;28;97315;-40
2022/05/29 00:27:07;;;;;;;87.38;51.83;;;18.40;59.00;;;;;;4920678;28;95469;-42
2022/05/29 00:29:35;;;;;;;86.97;51.33;;;18.40;58.60;;;;;;4908193;28;98968;-40
2022/05/29 00:32:01;;;;;;;88.22;51.65;;;18.40;58.60;;;;;;4913150;28;95454;-40
2022/05/29 00:34:27;;;;;;;89.15;51.35;;;18.40;58.30;;;;;;4912661;28;97276;-42
2022/05/29 00:36:53;;;;;;;87.18;51.40;;;18.40;58.60;;;;;;4914410;28;95763;-42
2022/05/29 00:39:19;;;;;;;85.78;51.47;;;18.40;58.70;;;;;;4898027;28;96953;-40
2022/05/29 00:41:46;;;;;;;87.57;51.72;;;18.40;58.90;;;;;;4906509;28;94551;-39
2022/05/29 00:44:13;;;;;;;87.10;51.70;;;18.40;58.50;;;;;;4911102;28;97719;-40
2022/05/29 00:46:45;;;;;;;86.47;51.58;;;18.30;58.60;;;;;;4908260;28;96581;-40
2022/05/29 00:49:12;;;;;;;86.38;51.17;;;18.30;58.80;;;;;;4909723;28;97642;-40
2022/05/29 00:51:42;;;;;;;85.35;51.10;;;18.30;58.90;;;;;;4907316;28;96882;-40
2022/05/29 00:54:08;;;;;;;85.32;51.33;;;18.30;58.60;;;;;;4910450;28;96210;-42
2022/05/29 00:56:36;;;;;;;86.47;51.33;;;18.30;58.40;;;;;;4914475;28;96613;-43
2022/05/29 00:59:03;;;;;;;87.35;51.53;;;18.30;59.40;;;;;;4918241;28;94639;-40
2022/05/29 01:01:29;;;;;;;87.95;51.45;;;18.20;58.90;;;;;;4916112;28;98035;-39
2022/05/29 01:03:55;;;;;;;86.65;51.35;;;18.20;58.60;;;;;;4918792;28;95758;-40
2022/05/29 01:06:21;;;;;;;86.97;51.67;;;18.20;58.70;;;;;;4920175;28;94493;-43
2022/05/29 01:08:48;;;;;;;86.57;51.25;;;18.10;58.80;;;;;;4920930;28;95220;-41
2022/05/29 01:11:38;;;;;;;86.25;51.42;;;18.20;58.40;;;;;;4911079;28;97447;-42
2022/05/29 01:14:40;;;;;;;86.05;51.55;;;18.20;58.60;;;;;;4909574;28;100544;-40
2022/05/29 01:17:37;;;;;;;86.68;51.65;;;18.10;58.80;;;;;;4912822;28;96803;-40
2022/05/29 01:20:13;;;;;;;87.60;51.33;;;18.10;59.10;;;;;;4909645;28;96956;-42
2022/05/29 01:22:54;;;;;;;87.18;51.47;;;18.10;58.80;;;;;;4912300;28;95390;-41
2022/05/29 01:26:01;;;;;;;85.35;51.22;;;18.10;58.90;;;;;;4912610;28;99438;-40
2022/05/29 01:28:36;;;;;;;88.63;51.35;;;18.10;58.40;;;;;;4912980;28;97747;-39
2022/05/29 01:31:14;;;;;;;85.28;51.10;;;18.10;59.00;;;;;;4917186;28;96761;-41
2022/05/29 01:33:57;;;;;;;85.82;51.30;;;18.00;59.30;;;;;;4913746;28;94958;-43
2022/05/29 01:37:00;;;;;;;87.53;51.05;;;18.00;59.20;;;;;;4914419;28;95160;-40
2022/05/29 01:39:46;;;;;;;87.35;51.35;;;18.00;58.90;;;;;;4909064;28;94960;-40
2022/05/29 01:42:18;;;;;;;85.80;51.17;;;18.00;59.30;;;;;;4915582;28;96631;-41
2022/05/29 01:44:47;;;;;;;86.40;51.38;;;18.00;58.90;;;;;;4909738;28;96647;-40
2022/05/29 01:47:23;;;;;;;86.88;51.55;;;18.00;59.20;;;;;;4917013;28;99377;-40
2022/05/29 01:49:54;;;;;;;86.55;51.30;;;18.00;59.30;;;;;;4911974;28;95131;-42
2022/05/29 01:52:32;;;;;;;86.03;51.55;;;18.00;59.20;;;;;;4915220;28;95306;-43
2022/05/29 01:55:03;;;;;;;85.80;51.25;;;18.00;58.90;;;;;;4901893;28;98830;-39
2022/05/29 01:57:32;;;;;;;;;;;18.00;58.90;;;;;;4902165;28;95581;-45
2022/05/29 02:00:24;;;;;;;84.82;50.97;;;18.00;59.00;;;;;;4914729;28;94435;-42
2022/05/29 02:03:11;;;;;;;87.05;51.47;;;18.00;59.20;;;;;;4908072;28;96211;-42
2022/05/29 02:05:50;;;;;;;84.78;51.15;;;18.00;59.10;;;;;;4909292;28;97911;-40
2022/05/29 02:08:31;;;;;;;86.47;51.53;;;18.00;58.90;;;;;;4911740;28;97139;-41
2022/05/29 02:11:11;;;;;;;85.28;51.22;;;18.00;59.10;;;;;;4919261;28;95099;-40
2022/05/29 02:13:48;;;;;;;85.60;51.25;;;18.00;58.50;;;;;;4911248;28;95638;-42
2022/05/29 02:16:17;;;;;;;86.03;51.42;;;18.00;59.00;;;;;;4908822;28;96229;-39
2022/05/29 02:19:01;;;;;;;86.93;51.67;;;18.00;59.50;;;;;;4918367;28;97371;-39
2022/05/29 02:21:34;;;;;;;85.38;51.33;;;18.00;58.70;;;;;;4907068;28;95678;-41
2022/05/29 02:24:04;;;;;;;86.68;51.65;;;18.00;58.90;;;;;;4912011;28;97990;-40
2022/05/29 02:26:35;;;;;;;85.10;51.00;;;18.00;59.00;;;;;;4909040;28;95134;-41
2022/05/29 02:29:08;;;;;;;86.40;51.40;;;18.00;59.20;;;;;;4914353;28;97984;-42
2022/05/29 02:32:04;;;;;;;88.05;51.35;;;18.00;59.00;;;;;;4898012;28;95883;-42
2022/05/29 02:34:49;;;;;;;85.00;51.45;;;18.00;58.80;;;;;;4903482;28;97116;-45
2022/05/29 02:37:44;;;;;;;85.60;51.25;;;18.00;58.90;;;;;;4915015;28;102027;-42
2022/05/29 02:40:25;;;;;;;86.03;51.50;;;18.10;59.20;;;;;;4921634;28;94588;-40
2022/05/29 02:43:25;;;;;;;84.97;51.22;;;18.00;58.60;;;;;;4923885;28;96213;-40
2022/05/29 02:45:56;;;;;;;85.28;51.53;;;18.00;58.30;;;;;;4915183;28;95987;-43
2022/05/29 02:48:48;;;;;;;86.07;51.57;;;18.00;58.70;;;;;;4926326;28;96087;-41
2022/05/29 02:51:33;;;;;;;85.65;51.50;;;18.00;59.20;;;;;;4910575;28;96178;-42
2022/05/29 02:53:59;;;;;;;85.13;51.35;;;18.00;58.20;;;;;;4913463;28;94754;-42
2022/05/29 02:56:25;;;;;;;84.63;51.03;;;17.90;57.80;;;;;;4905688;28;95432;-40
2022/05/29 02:58:52;;;;;;;85.70;51.10;;;18.00;59.10;;;;;;4910013;28;101770;-41
2022/05/29 03:01:33;;;;;;;86.03;51.40;;;18.00;58.40;;;;;;4904408;28;97199;-40
2022/05/29 03:04:18;;;;;;;84.80;51.20;;;17.90;58.50;;;;;;4912153;28;101666;-40
2022/05/29 03:07:04;;;;;;;85.43;51.25;;;18.00;58.50;;;;;;4913250;28;95197;-42
2022/05/29 03:09:41;;;;;;;85.75;51.25;;;17.90;58.40;;;;;;4907078;28;96597;-40
2022/05/29 03:12:22;;;;;;;84.70;50.88;;;18.00;58.40;;;;;;4907340;28;96154;-43
2022/05/29 03:14:59;;;;;;;87.20;51.15;;;18.00;59.00;;;;;;4904181;28;95218;-41
2022/05/29 03:17:52;;;;;;;84.38;51.00;;;18.00;59.00;;;;;;4913461;28;100671;-41
2022/05/29 03:20:42;;;;;;;85.22;51.05;;;18.00;58.40;;;;;;4903591;28;96037;-43
2022/05/29 03:23:26;;;;;;;85.20;51.25;;;18.00;58.60;;;;;;4902964;28;96012;-39
2022/05/29 03:25:56;;;;;;;83.93;50.83;;;18.00;58.70;;;;;;4910809;28;95364;-41
2022/05/29 03:28:30;;;;;;;85.47;51.30;;;18.00;58.80;;;;;;4908590;28;97747;-43
2022/05/29 03:30:59;;;;;;;84.65;51.22;;;18.00;58.40;;;;;;4907085;28;97925;-41
2022/05/29 03:33:25;;;;;;;85.70;51.25;;;18.00;58.80;;;;;;4907450;28;96548;-43
2022/05/29 03:35:54;;;;;;;84.65;51.38;;;18.00;59.00;;;;;;4913467;28;97094;-43
2022/05/29 03:38:21;;;;;;;84.50;51.08;;;18.00;59.00;;;;;;4902582;28;96438;-41
2022/05/29 03:40:48;;;;;;;86.20;51.47;;;18.00;59.00;;;;;;4911648;28;95398;-40
2022/05/29 03:43:13;;;;;;;84.43;51.28;;;18.10;58.90;;;;;;4900344;28;97028;-41
2022/05/29 03:45:39;;;;;;;85.38;51.08;;;18.00;58.80;;;;;;4906643;28;95821;-42
2022/05/29 03:48:06;;;;;;;86.60;51.22;;;18.00;58.50;;;;;;4907996;28;95914;-45
2022/05/29 03:50:34;;;;;;;85.60;51.25;;;18.00;58.80;;;;;;4908116;28;96737;-40
2022/05/29 03:53:01;;;;;;;85.85;51.15;;;18.00;58.50;;;;;;4908533;28;97013;-41
2022/05/29 03:55:26;;;;;;;84.60;51.05;;;18.00;58.60;;;;;;4903362;28;99443;-40
2022/05/29 03:57:53;;;;;;;84.32;50.75;;;18.00;59.10;;;;;;4910013;28;96976;-40
2022/05/29 04:00:20;;;;;;;84.05;50.92;;;18.00;58.70;;;;;;4911764;28;96762;-43
2022/05/29 04:02:47;;;;;;;84.72;51.45;;;18.00;58.30;;;;;;4913989;28;95598;-41
2022/05/29 04:05:15;;;;;;;86.05;51.05;;;18.00;58.60;;;;;;4909166;28;96901;-41
2022/05/29 04:13:11;;;;;;;84.75;51.15;;;18.00;58.40;;;;;;4905200;28;96034;-42
2022/05/29 04:15:44;;;;;;;85.22;50.90;;;18.00;58.30;;;;;;4906561;28;95409;-41
2022/05/29 04:18:15;;;;;;;84.57;51.35;;;18.00;58.90;;;;;;4906652;28;96916;-46
2022/05/29 04:20:41;;;;;;;86.28;51.42;;;18.00;58.80;;;;;;4912410;28;95921;-41
2022/05/29 04:23:07;;;;;;;85.57;51.30;;;18.00;58.50;;;;;;4910771;28;97880;-41
2022/05/29 04:25:33;;;;;;;83.88;50.85;;;18.00;58.80;;;;;;4900532;28;96571;-41
2022/05/29 04:27:59;;;;;;;83.88;50.88;;;18.00;58.60;;;;;;4906058;28;94996;-40
2022/05/29 04:30:25;;;;;;;86.20;51.20;;;18.00;58.40;;;;;;4903857;28;96072;-43
2022/05/29 04:32:59;;;;;;;83.95;51.00;;;18.00;58.40;;;;;;4895872;28;96090;-40
2022/05/29 04:35:31;;;;;;;84.72;51.45;;;18.10;58.80;;;;;;4912988;28;97540;-40
2022/05/29 04:37:57;;;;;;;84.65;51.28;;;18.10;58.30;;;;;;4910673;28;97709;-41
2022/05/29 04:40:22;;;;;;;86.40;51.28;;;18.10;57.90;;;;;;4903235;28;95303;-43
2022/05/29 04:42:48;;;;;;;84.85;51.25;;;18.20;58.30;;;;;;4906437;28;96659;-42
2022/05/29 04:45:14;;;;;;;86.15;51.38;;;18.20;57.70;;;;;;4909743;28;95875;-41
2022/05/29 04:47:39;;;;;;;86.53;51.25;;;18.20;58.20;;;;;;4904586;28;100428;-40
2022/05/29 04:50:07;;;;;;;84.60;51.22;;;18.20;57.80;;;;;;4909655;28;96706;-41
2022/05/29 04:52:34;;;;;;;86.18;51.38;;;18.20;57.90;;;;;;4915325;28;96535;-42
2022/05/29 04:55:00;;;;;;;86.65;51.58;;;18.30;57.80;;;;;;4911169;28;97748;-41
2022/05/29 04:57:26;;;;;;;86.07;51.63;;;18.30;57.90;;;;;;4915911;28;96844;-44
2022/05/29 04:59:52;;;;;;;84.93;51.30;;;18.30;57.60;;;;;;4920072;28;95267;-40
2022/05/29 05:02:17;;;;;;;86.65;51.53;;;18.30;57.40;;;;;;4913392;28;96327;-41
2022/05/29 05:04:43;;;;;;;86.88;51.35;;;18.30;57.70;;;;;;4910229;28;95499;-45
2022/05/29 05:07:09;;;;;;;85.50;51.35;;;18.30;57.10;;;;;;4918795;28;96862;-40
2022/05/29 05:09:35;;;;;;;86.03;51.60;;;18.30;57.80;;;;;;4912581;28;96214;-44
2022/05/29 05:12:00;;;;;;;86.15;51.63;;;18.30;57.90;;;;;;4908097;28;99174;-42
2022/05/29 05:14:27;;;;;;;87.35;51.47;;;18.30;57.80;;;;;;4913374;28;95468;-41
2022/05/29 05:16:53;;;;;;;85.07;51.63;;;18.20;57.80;;;;;;4913630;28;96348;-40
2022/05/29 05:19:20;;;;;;;86.30;51.45;;;18.30;57.50;;;;;;4905547;28;96627;-40
2022/05/29 05:21:46;;;;;;;85.95;51.75;;;18.30;58.00;;;;;;4907085;28;96412;-43
2022/05/29 05:24:12;;;;;;;86.45;51.60;;;18.30;56.70;;;;;;4915455;28;94877;-41
2022/05/29 05:26:38;;;;;;;84.95;51.58;;;18.30;57.80;;;;;;4903392;28;100274;-41
2022/05/29 05:29:04;;;;;;;86.60;51.78;;;18.30;57.80;;;;;;4909639;28;96992;-43
2022/05/29 05:31:30;;;;;;;85.72;51.53;;;18.40;56.70;;;;;;4917053;28;96208;-40
2022/05/29 05:33:55;;;;;;;85.03;51.63;;;18.30;57.40;;;;;;4914765;28;95297;-40
2022/05/29 05:36:21;;;;;;;85.50;51.50;;;18.30;57.20;;;;;;4912838;28;97212;-43
2022/05/29 05:38:47;;;;;;;84.90;51.45;;;18.30;57.60;;;;;;4913978;28;95198;-42
2022/05/29 05:41:14;;;;;;;85.18;51.10;;;18.30;57.20;;;;;;4921115;28;94775;-41
2022/05/29 05:43:41;;;;;;;85.38;51.42;;;18.30;57.70;;;;;;4921389;28;95283;-42
2022/05/29 05:46:12;;;;;;;86.70;51.58;;;18.30;57.60;;;;;;4915356;28;95941;-41
2022/05/29 05:48:39;;;;;;;84.97;51.17;;;18.30;57.40;;;;;;4917968;28;100422;-40
2022/05/29 05:51:05;;;;;;;84.88;51.20;;;18.30;57.50;;;;;;4915293;28;95032;-42
2022/05/29 05:53:31;;;;;;;85.32;51.38;;;18.30;57.70;;;;;;4915576;28;95259;-40
2022/05/29 05:55:56;;;;;;;84.78;51.15;;;18.30;57.30;;;;;;4922398;28;98256;-43
2022/05/29 05:58:22;;;;;;;85.35;51.22;;;18.40;57.30;;;;;;4910679;28;96053;-42
2022/05/29 06:00:49;;;;;;;85.43;51.40;;;18.40;57.00;;;;;;4915239;28;95764;-40
2022/05/29 06:03:15;;;;;;;84.57;51.28;;;18.40;57.20;;;;;;4922849;28;95019;-40
2022/05/29 06:05:41;;;;;;;85.30;51.30;;;18.40;57.50;;;;;;4922531;28;95376;-42
2022/05/29 06:08:07;;;;;;;86.97;51.50;;;18.40;56.90;;;;;;4919671;28;95462;-42
2022/05/29 06:10:33;;;;;;;85.47;51.55;;;18.40;57.10;;;;;;4915048;28;95204;-41
2022/05/29 06:13:03;;;;;;;85.78;51.55;;;18.40;56.70;;;;;;4905427;28;97904;-41
2022/05/29 06:15:29;;;;;;;84.50;51.50;;;18.50;56.90;;;;;;4916700;28;96026;-42
2022/05/29 06:17:55;;;;;;;86.30;51.42;;;18.40;56.10;;;;;;4912124;28;96685;-43
2022/05/29 06:20:21;;;;;;;86.78;51.53;;;18.40;57.00;;;;;;4914222;28;98235;-41
2022/05/29 06:22:47;;;;;;;85.43;51.55;;;18.40;56.30;;;;;;4914908;28;94814;-41
2022/05/29 06:25:13;;;;;;;85.82;51.58;;;18.40;56.10;;;;;;4916249;28;96094;-41
2022/05/29 06:27:41;;;;;;;85.47;51.58;;;18.50;56.80;;;;;;4916528;28;95010;-41
2022/05/29 06:30:09;;;;;;;87.07;51.65;;;18.50;56.80;;;;;;4913752;28;95754;-41
2022/05/29 06:32:36;;;;;;;86.97;51.92;;;18.60;56.60;;;;;;4912656;28;96817;-40
2022/05/29 06:35:02;;;;;;;89.43;51.78;;;18.60;56.40;;;;;;4912797;28;99914;-40
2022/05/29 06:37:29;;;;;;;87.95;51.65;;;18.60;56.40;;;;;;4916706;28;96836;-41
2022/05/29 06:39:55;;;;;;;87.30;51.85;;;18.70;56.40;;;;;;4898005;28;95681;-42
2022/05/29 06:42:21;;;;;;;87.93;51.90;;;18.80;55.50;;;;;;4906762;28;95981;-43
2022/05/29 06:44:47;;;;;;;86.00;51.75;;;18.80;55.90;;;;;;4899286;28;102548;-44
2022/05/29 06:47:15;;;;;;;86.28;51.95;;;18.90;55.60;;;;;;4917555;28;95950;-41
2022/05/29 06:49:41;;;;;;;86.82;51.47;;;18.90;54.30;;;;;;4911394;28;95384;-40
2022/05/29 06:52:10;;;;;;;89.13;51.88;;;18.90;55.20;;;;;;4909751;28;97227;-42
2022/05/29 06:54:37;;;;;;;87.93;52.05;;;18.90;55.20;;;;;;4904512;28;95967;-40
2022/05/29 06:57:08;;;;;;;86.72;51.90;;;18.90;55.40;;;;;;4915287;28;95369;-43
2022/05/29 07:06:59;;;;;;;87.72;52.22;;;19.00;55.20;;;;;;4908406;28;97474;-42
2022/05/29 07:07:58;;;;;;;88.00;52.15;;;19.00;55.00;;;;;;4904634;28;95964;-41
2022/05/29 07:10:24;;;;;;;88.35;52.13;;;19.00;54.70;;;;;;4904035;28;97887;-40
2022/05/29 07:12:50;;;;;;;88.50;52.05;;;19.00;54.10;;;;;;4906254;28;100900;-41
2022/05/29 07:15:18;;;;;;;90.25;52.00;;;19.00;54.70;;;;;;4908280;28;96730;-40
2022/05/29 07:17:44;;;;;;;88.05;52.25;;;19.10;53.90;;;;;;4907170;28;102425;-41
2022/05/29 07:20:10;;;;;;;89.20;52.28;;;19.10;55.50;;;;;;4896012;28;96093;-40
2022/05/29 07:22:36;;;;;;;87.43;52.17;;;19.20;55.40;;;;;;4905217;28;96130;-41
2022/05/29 07:25:05;;;;;;;88.82;52.08;;;19.20;54.70;;;;;;4904470;28;94956;-41
2022/05/29 07:27:30;;;;;;;91.63;52.15;;;19.30;54.30;;;;;;4921222;28;95552;-41
2022/05/29 07:29:56;;;;;;;88.43;52.05;;;19.30;54.30;;;;;;4910606;28;95229;-41
2022/05/29 07:32:23;;;;;;;88.72;52.03;;;19.30;54.70;;;;;;4910101;28;98091;-43
2022/05/29 07:34:49;;;;;;;87.15;52.05;;;19.30;54.70;;;;;;4908238;28;96099;-41
2022/05/29 07:37:16;;;;;;;88.45;52.08;;;19.30;54.20;;;;;;4904576;28;99683;-40
2022/05/29 07:39:46;;;;;;;87.28;52.15;;;19.30;54.70;;;;;;4903085;28;96663;-43
2022/05/29 07:44:57;;;;;;;86.13;51.78;;;19.10;54.20;;;;;;4904201;28;96305;-42
2022/05/29 07:47:27;;;;;;;87.85;51.70;;;19.10;55.10;;;;;;4904950;28;95700;-40
2022/05/29 07:49:55;;;;;;;86.32;51.72;;;19.10;55.90;;;;;;4912175;28;96051;-42
2022/05/29 07:52:21;;;;;;;86.63;51.72;;;19.00;55.70;;;;;;4904616;28;94673;-40
2022/05/29 07:54:47;;;;;;;86.97;51.92;;;19.10;54.40;;;;;;4906772;28;96341;-40
2022/05/29 07:57:13;;;;;;;88.20;51.75;;;19.00;55.50;;;;;;4905843;28;95761;-40
2022/05/29 07:59:38;;;;;;;93.25;52.00;;;19.00;54.40;;;;;;4893299;28;98285;-40
2022/05/29 08:02:04;;;;;;;89.78;52.13;;;19.00;56.40;;;;;;4895338;28;96205;-42
2022/05/29 08:04:29;;;;;;;89.07;52.15;;;19.00;56.30;;;;;;4898839;28;96048;-41
2022/05/29 08:06:56;;;;;;;93.45;52.28;;;19.00;55.40;;;;;;4906826;28;100090;-43
2022/05/29 08:09:22;;;;;;;89.63;51.90;;;19.00;55.10;;;;;;4901360;28;95977;-40
2022/05/29 08:11:47;;;;;;;89.68;51.90;;;19.10;55.50;;;;;;4882638;28;103175;-41
2022/05/29 08:14:13;;;;;;;90.43;52.17;;;19.10;55.60;;;;;;4909713;28;95135;-40
2022/05/29 08:16:39;;;;;;;90.68;52.42;;;19.20;55.10;;;;;;4896027;28;96344;-40
2022/05/29 08:19:07;;;;;;;90.32;52.42;;;19.20;55.50;;;;;;4900898;28;96571;-41
2022/05/29 08:21:33;;;;;;;90.57;52.35;;;19.30;55.50;;;;;;4898188;28;100923;-42
2022/05/29 08:32:12;;;;;;;91.28;52.38;;;19.50;53.30;;;;;;4903162;28;95749;-41
2022/05/29 08:34:37;;;;;;;90.80;52.63;;;19.50;53.90;;;;;;4909279;28;96670;-41
2022/05/29 08:37:04;;;;;;;89.97;52.50;;;19.50;54.30;;;;;;4898169;28;95538;-41
2022/05/29 08:39:29;;;;;;;91.30;52.47;;;19.60;53.30;;;;;;4904447;28;97876;-42
2022/05/29 08:41:59;;;;;;;90.53;52.22;;;19.50;53.70;;;;;;4921200;28;94418;-40
2022/05/29 08:44:42;;;;;;;89.45;52.45;;;19.50;54.00;;;;;;4915260;28;95737;-41
2022/05/29 08:47:08;;;;;;;90.72;52.50;;;19.50;53.00;;;;;;4917570;28;96093;-40
2022/05/29 08:49:42;;;;;;;90.47;52.47;;;19.40;52.30;;;;;;4915013;28;96663;-40
2022/05/29 08:52:11;;;;;;;92.10;52.65;;;19.40;53.80;;;;;;4915699;28;96808;-40
2022/05/29 08:54:41;;;;;;;90.82;52.42;;;19.40;52.70;;;;;;4914329;28;102029;-43
2022/05/29 08:57:09;;;;;;;90.90;52.67;;;19.50;53.30;;;;;;4918099;28;95196;-41
2022/05/29 08:59:50;;;;;;;91.40;52.72;;;19.60;51.90;;;;;;4917968;28;95610;-42
2022/05/29 09:02:18;;;;;;;94.53;52.88;;;19.60;54.20;;;;;;4914667;28;95704;-43
2022/05/29 09:04:53;;;;;;;91.78;53.22;;;19.80;54.00;;;;;;4908483;28;95007;-40
2022/05/29 09:07:22;;;;;;;94.75;53.25;;;19.90;52.90;;;;;;4889588;28;102886;-41
2022/05/29 09:09:50;;;;;;;93.00;53.13;;;20.00;52.80;;;;;;4905500;28;97310;-40
2022/05/29 09:12:44;;;;;;;93.28;53.22;;;20.10;52.10;;;;;;4915724;28;95913;-40
2022/05/29 09:15:13;;;;;;;93.53;53.08;;;20.10;52.00;;;;;;4906915;28;96472;-43
2022/05/29 09:18:01;;;;;;;92.15;53.00;;;20.00;51.30;;;;;;4912342;28;97072;-42
2022/05/29 09:21:07;;;;;;;92.38;53.03;;;19.90;51.90;;;;;;4902031;28;97119;-40
2022/05/29 09:24:01;;;;;;;90.97;52.90;;;19.80;50.90;;;;;;4909572;28;97108;-39
2022/05/29 09:26:34;;;;;;;91.80;52.80;;;19.80;51.90;;;;;;4895988;28;95870;-40
2022/05/29 09:29:00;;;;;;;92.10;52.83;;;19.80;52.00;;;;;;4903504;28;98015;-41
2022/05/29 09:31:26;;;;;;;91.47;52.85;;;19.90;53.00;;;;;;4906564;28;95538;-39
2022/05/29 09:33:52;;;;;;;93.53;53.33;;;19.90;53.70;;;;;;4904791;28;94846;-39
2022/05/29 09:36:36;;;;;;;93.25;53.53;;;19.90;52.30;;;;;;4908283;28;98067;-40
2022/05/29 09:39:19;;;;;;;92.18;53.13;;;20.00;53.10;;;;;;4910240;28;95825;-40
2022/05/29 09:41:50;;;;;;;95.32;53.60;;;20.10;52.90;;;;;;4906253;28;97620;-40
2022/05/29 09:44:20;;;;;;;;;;;20.20;52.40;;;;;;4905254;28;100720;-40
2022/05/29 09:46:48;;;;;;;92.25;53.33;;;20.20;53.20;;;;;;4897197;28;97823;-40
2022/05/29 09:52:11;;;;;;;;;;;20.20;53.40;;;;;;4910607;28;95273;-41
2022/05/29 09:54:53;;;;;;;94.55;53.53;;;20.20;53.00;;;;;;4911391;28;95440;-45
2022/05/29 09:57:31;;;;;;;93.25;53.88;;;20.20;53.70;;;;;;4912670;28;96109;-41
2022/05/29 10:00:27;;;;;;;94.25;53.75;;;20.30;54.10;;;;;;4915896;28;96022;-46
2022/05/29 10:02:54;;;;;;;93.43;53.63;;;20.20;53.50;;;;;;4917684;28;95780;-42
2022/05/29 10:05:31;;;;;;;95.15;53.67;;;20.30;54.00;;;;;;4919768;28;100311;-41
2022/05/29 10:08:16;;;;;;;93.57;53.78;;;20.30;53.70;;;;;;4918191;28;97936;-40
2022/05/29 10:10:42;;;;;;;94.22;53.97;;;20.30;53.60;;;;;;4911158;28;97051;-41
2022/05/29 10:13:07;;;;;;;94.68;53.55;;;20.30;53.60;;;;;;4921933;28;95515;-41
2022/05/29 10:15:42;;;;;;;93.95;53.72;;;20.20;53.70;;;;;;4916906;28;95353;-43
2022/05/29 10:18:33;;;;;;;95.13;53.78;;;20.30;54.20;;;;;;4915695;28;100920;-44
2022/05/29 10:21:21;;;;;;;96.30;54.28;;;20.40;54.20;;;;;;4920223;28;97026;-42
2022/05/29 10:23:51;;;;;;;95.32;54.03;;;20.40;54.10;;;;;;4912878;28;95316;-41
2022/05/29 10:26:33;;;;;;;100.25;54.90;;;20.50;53.40;;;;;;4917248;28;94926;-42
2022/05/29 10:29:01;;;;;;;96.70;54.05;;;20.50;53.70;;;;;;4914237;28;96314;-42
2022/05/29 10:31:38;;;;;;;95.47;54.65;;;20.50;52.70;;;;;;4935142;28;95512;-39
2022/05/29 10:34:26;;;;;;;97.68;53.80;;;20.60;54.10;;;;;;4922226;28;96349;-42
2022/05/29 10:36:51;;;;;;;96.30;54.15;;;20.60;53.50;;;;;;4928047;28;95674;-41
2022/05/29 10:39:20;;;;;;;94.20;54.30;;;20.50;52.20;;;;;;4921496;28;96821;-43
2022/05/29 10:41:47;;;;;;;99.28;54.42;;;20.60;53.50;;;;;;4914969;28;95952;-41
2022/05/29 10:44:34;;;;;;;99.05;54.47;;;20.60;54.20;;;;;;4919638;28;95375;-40
2022/05/29 10:47:08;;;;;;;99.15;54.78;;;20.70;53.30;;;;;;4920922;28;95383;-42
2022/05/29 10:49:39;;;;;;;98.60;54.58;;;20.70;53.40;;;;;;4912304;28;95573;-42
2022/05/29 10:52:35;;;;;;;98.70;54.85;;;20.80;53.00;;;;;;4927511;28;96174;-40
2022/05/29 10:55:10;;;;;;;97.32;54.70;;;20.80;53.70;;;;;;4920018;28;95211;-46
2022/05/29 10:57:36;;;;;;;96.07;54.20;;;20.90;53.90;;;;;;4920522;28;100853;-41
2022/05/29 11:00:27;;;;;;;96.45;54.60;;;20.90;52.50;;;;;;4914974;28;104883;-44
2022/05/29 11:03:17;;;;;;;98.05;54.38;;;20.90;52.70;;;;;;4922697;28;96745;-40
2022/05/29 11:06:17;;;;;;;99.70;54.45;;;20.90;53.40;;;;;;4917501;28;95290;-42
2022/05/29 11:09:06;;;;;;;95.72;54.40;;;20.90;53.80;;;;;;4923114;28;95119;-40
2022/05/29 11:12:07;;;;;;;99.93;54.90;;;20.90;53.40;;;;;;4908578;28;95589;-41
2022/05/29 11:14:43;;;;;;;97.55;54.55;;;20.90;53.30;;;;;;4915991;28;101162;-41
2022/05/29 11:17:36;;;;;;;95.15;54.28;;;21.00;52.80;;;;;;4917309;28;100622;-42
2022/05/29 11:20:27;;;;;;;96.03;54.47;;;21.00;53.70;;;;;;4910461;28;95052;-43
2022/05/29 11:22:58;;;;;;;97.03;54.72;;;20.90;52.40;;;;;;4910867;28;97274;-40
2022/05/29 11:25:26;;;;;;;;;;;20.90;54.20;;;;;;4911071;28;95570;-41
2022/05/29 11:28:10;;;;;;;98.72;54.53;;;20.90;54.60;;;;;;4907751;28;96128;-44
2022/05/29 11:31:06;;;;;;;98.53;54.33;;;20.90;54.30;;;;;;4920373;28;95893;-42
2022/05/29 11:34:29;;;;;;;96.43;54.25;;;21.00;54.10;;;;;;4917543;28;95755;-42
2022/05/29 11:37:09;;;;;;;96.85;54.53;;;21.10;53.50;;;;;;4915895;28;96207;-41
2022/05/29 11:39:46;;;;;;;97.23;54.47;;;21.10;53.80;;;;;;4902086;28;95442;-43
2022/05/29 11:42:42;;;;;;;96.75;54.33;;;21.10;53.70;;;;;;4916443;28;96234;-41
2022/05/29 11:51:07;;;;;;;99.00;54.17;;;20.90;53.20;;;;;;4914271;28;96428;-41
2022/05/29 11:51:16;;;;;;;94.95;53.67;;;20.70;53.50;;;;;;4919459;28;96641;-40
2022/05/29 11:54:03;;;;;;;94.07;53.45;;;20.60;53.10;;;;;;4915130;28;95942;-42
2022/05/29 11:56:36;;;;;;;92.40;53.33;;;20.50;54.00;;;;;;4917482;28;102478;-42
2022/05/29 11:59:25;;;;;;;94.13;53.15;;;20.40;54.50;;;;;;4905043;28;95931;-42
2022/05/29 12:02:12;;;;;;;95.93;53.78;;;20.40;55.60;;;;;;4915209;28;95527;-40
2022/05/29 12:04:46;;;;;;;93.13;53.38;;;20.40;56.30;;;;;;4909905;28;95393;-41
2022/05/29 12:07:27;;;;;;;97.05;53.50;;;20.40;55.60;;;;;;4909122;28;97881;-40
2022/05/29 12:09:59;;;;;;;93.90;53.47;;;20.50;55.90;;;;;;4907892;28;95376;-41
2022/05/29 12:12:33;;;;;;;96.30;53.83;;;20.60;55.50;;;;;;4914794;28;96200;-40
2022/05/29 12:15:07;;;;;;;94.18;53.90;;;20.70;55.50;;;;;;4898872;28;96048;-42
2022/05/29 12:17:45;;;;;;;94.35;53.83;;;20.80;54.40;;;;;;4902791;28;97140;-39
2022/05/29 12:20:36;;;;;;;95.60;53.70;;;20.90;54.60;;;;;;4907840;28;96069;-43
2022/05/29 12:23:07;;;;;;;94.07;53.75;;;20.90;54.90;;;;;;4914217;28;96697;-40
2022/05/29 12:25:45;;;;;;;94.10;54.20;;;20.90;54.50;;;;;;4904554;28;96691;-39
2022/05/29 12:28:35;;;;;;;94.72;53.95;;;20.90;54.50;;;;;;4895102;28;96216;-40
2022/05/29 12:31:01;;;;;;;94.70;53.83;;;20.90;54.20;;;;;;4903403;28;97411;-42
2022/05/29 12:33:27;;;;;;;93.47;53.90;;;20.80;54.90;;;;;;4893055;28;100149;-42
2022/05/29 12:36:31;;;;;;;94.38;53.97;;;20.80;54.00;;;;;;4903013;28;95278;-41
2022/05/29 12:38:57;;;;;;;91.93;53.35;;;20.70;54.40;;;;;;4909656;28;96324;-40
2022/05/29 12:41:45;;;;;;;93.15;53.53;;;20.50;54.30;;;;;;4895569;28;101177;-40
2022/05/29 12:44:35;;;;;;;93.03;53.75;;;20.50;55.10;;;;;;4900987;28;100977;-40
2022/05/29 12:47:19;;;;;;;94.40;53.58;;;20.40;55.30;;;;;;4913199;28;100886;-40
2022/05/29 12:49:59;;;;;;;92.53;53.25;;;20.40;55.70;;;;;;4903318;28;97221;-39
2022/05/29 12:52:36;;;;;;;93.70;53.37;;;20.40;54.40;;;;;;4907076;28;96023;-46
2022/05/29 12:55:25;;;;;;;95.18;53.72;;;20.30;54.80;;;;;;4911553;28;96878;-40
2022/05/29 12:58:11;;;;;;;99.00;55.40;;;20.40;55.20;;;;;;4914647;28;95432;-39
2022/05/29 13:01:11;;;;;;;195.32;115.68;;;20.30;55.90;;;;;;4908942;28;100801;-41
2022/05/29 13:03:40;;;;;;;150.23;87.97;;;20.10;53.90;;;;;;4893931;28;94989;-43
2022/05/29 13:06:21;;;;;;;182.05;110.72;;;19.60;57.20;;;;;;4916927;28;95243;-41
2022/05/29 13:08:59;;;;;;;129.52;76.32;;;19.30;58.00;;;;;;4909368;28;94606;-43
2022/05/29 13:11:33;;;;;;;162.95;100.22;;;19.00;57.60;;;;;;4904354;28;98843;-41
2022/05/29 13:14:03;;;;;;;122.28;79.70;;;18.90;57.80;;;;;;4908495;28;96170;-41
2022/05/29 13:16:33;;;;;;;127.63;80.00;;;18.80;58.00;;;;;;4899752;28;99267;-43
2022/05/29 13:19:21;;;;;;;124.63;84.72;;;18.70;58.70;;;;;;4893024;28;100325;-41
2022/05/29 13:22:06;;;;;;;117.05;76.18;;;18.70;58.60;;;;;;4909875;28;95424;-45
2022/05/29 13:24:45;;;;;;;103.30;67.13;;;18.60;58.10;;;;;;4915644;28;95325;-43